IBE282 KJFK-LEMD
Flight info
| Callsign | IBE282 |
|---|---|
| Flight time | N/A |
| Altitude | 37000 |
| Route | KJFK SHIPP Y487 ISLES JENYY DOVEY 4200N/06000W 4400N/05000W 4700N/04000W 4800N/03000W 4500N/02000W RETEN EPOPO ADORO ZMR LEMD |
| Aircraft | A359/H-SDE2E3FGHIRWY/LB1 |
Departure
| Time | N/A |
|---|---|
| Airport | John F. Kennedy International Airport (KJFK) |
Arrival
| Time | 2026-05-06 02:28 |
|---|---|
| Airport | Adolfo Suárez Madrid–Barajas Airport (LEMD) |
| Time | Latitude | Longitude | Altitude | Speed | Heading |
|---|---|---|---|---|---|
| 2026-05-06 01:51 | 41.63281 | -6.00133 | 20054 ft | 462 kts | 110° |
| 2026-05-06 01:52 | 41.62150 | -5.96123 | 20051 ft | 461 kts | 110° |
| 2026-05-06 01:52 | 41.61231 | -5.92871 | 20045 ft | 463 kts | 110° |
| 2026-05-06 01:52 | 41.60090 | -5.88834 | 20047 ft | 467 kts | 110° |
| 2026-05-06 01:52 | 41.58937 | -5.84765 | 20046 ft | 468 kts | 110° |
| 2026-05-06 01:53 | 41.57784 | -5.80699 | 20045 ft | 468 kts | 110° |
| 2026-05-06 01:53 | 41.56628 | -5.76634 | 20044 ft | 468 kts | 110° |
| 2026-05-06 01:53 | 41.55471 | -5.72570 | 20043 ft | 468 kts | 110° |
| 2026-05-06 01:53 | 41.54448 | -5.68452 | 20039 ft | 467 kts | 101° |
| 2026-05-06 01:54 | 41.53947 | -5.64166 | 20023 ft | 464 kts | 98° |
| 2026-05-06 01:54 | 41.52999 | -5.60097 | 19471 ft | 459 kts | 116° |
| 2026-05-06 01:54 | 41.51219 | -5.56577 | 18820 ft | 456 kts | 133° |
| 2026-05-06 01:54 | 41.48886 | -5.53784 | 18299 ft | 449 kts | 142° |
| 2026-05-06 01:55 | 41.46392 | -5.51309 | 17582 ft | 445 kts | 144° |
| 2026-05-06 01:55 | 41.43943 | -5.48886 | 16907 ft | 442 kts | 143° |
| 2026-05-06 01:55 | 41.41544 | -5.46343 | 16181 ft | 439 kts | 141° |
| 2026-05-06 01:55 | 41.39230 | -5.43700 | 15512 ft | 436 kts | 139° |
| 2026-05-06 01:56 | 41.36997 | -5.41001 | 15013 ft | 429 kts | 137° |
| 2026-05-06 01:56 | 41.34848 | -5.38321 | 14496 ft | 422 kts | 137° |
| 2026-05-06 01:56 | 41.32734 | -5.35650 | 13925 ft | 417 kts | 136° |
| 2026-05-06 01:56 | 41.30640 | -5.32997 | 13286 ft | 412 kts | 136° |
| 2026-05-06 01:57 | 41.28565 | -5.30374 | 12634 ft | 408 kts | 136° |
| 2026-05-06 01:57 | 41.26510 | -5.27786 | 12004 ft | 404 kts | 137° |
| 2026-05-06 01:57 | 41.24487 | -5.25248 | 11401 ft | 400 kts | 137° |
| 2026-05-06 01:57 | 41.22481 | -5.22739 | 11099 ft | 392 kts | 137° |
| 2026-05-06 01:58 | 41.20511 | -5.20278 | 11031 ft | 379 kts | 137° |
| 2026-05-06 01:58 | 41.18645 | -5.17949 | 11032 ft | 358 kts | 137° |
| 2026-05-06 01:58 | 41.16876 | -5.15744 | 11032 ft | 339 kts | 137° |
| 2026-05-06 01:58 | 41.15200 | -5.13656 | 11031 ft | 322 kts | 137° |
| 2026-05-06 01:59 | 41.13618 | -5.11686 | 11028 ft | 304 kts | 137° |
| 2026-05-06 01:59 | 41.12110 | -5.09811 | 11024 ft | 288 kts | 137° |
| 2026-05-06 01:59 | 41.10681 | -5.08034 | 11031 ft | 278 kts | 137° |
| 2026-05-06 01:59 | 41.09265 | -5.06275 | 11034 ft | 279 kts | 137° |
| 2026-05-06 02:00 | 41.07845 | -5.04515 | 11045 ft | 280 kts | 137° |
| 2026-05-06 02:00 | 41.06422 | -5.02751 | 11039 ft | 280 kts | 137° |
| 2026-05-06 02:00 | 41.04997 | -5.00985 | 11030 ft | 281 kts | 137° |
| 2026-05-06 02:00 | 41.03589 | -4.99240 | 11047 ft | 280 kts | 137° |
| 2026-05-06 02:01 | 41.02147 | -4.97453 | 11026 ft | 280 kts | 137° |
| 2026-05-06 02:01 | 41.00722 | -4.95689 | 11042 ft | 281 kts | 137° |
| 2026-05-06 02:01 | 40.99295 | -4.93923 | 11046 ft | 281 kts | 137° |
| 2026-05-06 02:01 | 40.97865 | -4.92155 | 11044 ft | 281 kts | 137° |
| 2026-05-06 02:02 | 40.96457 | -4.90416 | 11029 ft | 280 kts | 137° |
| 2026-05-06 02:02 | 40.95031 | -4.88655 | 11050 ft | 280 kts | 137° |
| 2026-05-06 02:02 | 40.93603 | -4.86893 | 11044 ft | 280 kts | 137° |
| 2026-05-06 02:02 | 40.92178 | -4.85136 | 11044 ft | 280 kts | 137° |
| 2026-05-06 02:03 | 40.90754 | -4.83380 | 11043 ft | 280 kts | 137° |
| 2026-05-06 02:03 | 40.89322 | -4.81617 | 11041 ft | 280 kts | 137° |
| 2026-05-06 02:03 | 40.87898 | -4.79864 | 11042 ft | 280 kts | 137° |
| 2026-05-06 02:03 | 40.86464 | -4.78100 | 11044 ft | 280 kts | 138° |
| 2026-05-06 02:04 | 40.85036 | -4.76344 | 11026 ft | 280 kts | 137° |
| 2026-05-06 02:04 | 40.83609 | -4.74591 | 11047 ft | 280 kts | 138° |
| 2026-05-06 02:04 | 40.82197 | -4.72858 | 11045 ft | 280 kts | 138° |
| 2026-05-06 02:04 | 40.80755 | -4.71087 | 11008 ft | 280 kts | 138° |
| 2026-05-06 02:05 | 40.79332 | -4.69341 | 11028 ft | 279 kts | 138° |
| 2026-05-06 02:05 | 40.77923 | -4.67614 | 11027 ft | 279 kts | 138° |
| 2026-05-06 02:05 | 40.76503 | -4.65876 | 11026 ft | 279 kts | 138° |
| 2026-05-06 02:05 | 40.75083 | -4.64139 | 11027 ft | 279 kts | 138° |
| 2026-05-06 02:06 | 40.73659 | -4.62398 | 11022 ft | 279 kts | 138° |
| 2026-05-06 02:06 | 40.72240 | -4.60663 | 11026 ft | 279 kts | 138° |
| 2026-05-06 02:06 | 40.70816 | -4.58922 | 11026 ft | 279 kts | 138° |
| 2026-05-06 02:06 | 40.69376 | -4.57164 | 11036 ft | 290 kts | 139° |
| 2026-05-06 02:07 | 40.67838 | -4.55294 | 11038 ft | 309 kts | 139° |
| 2026-05-06 02:07 | 40.66233 | -4.53340 | 11026 ft | 314 kts | 139° |
| 2026-05-06 02:07 | 40.64635 | -4.51391 | 11005 ft | 316 kts | 139° |
| 2026-05-06 02:07 | 40.63023 | -4.49428 | 11025 ft | 316 kts | 139° |
| 2026-05-06 02:08 | 40.61411 | -4.47467 | 11024 ft | 315 kts | 139° |
| 2026-05-06 02:08 | 40.59803 | -4.45510 | 11017 ft | 314 kts | 138° |
| 2026-05-06 02:08 | 40.58206 | -4.43567 | 11020 ft | 313 kts | 138° |
| 2026-05-06 02:08 | 40.56604 | -4.41615 | 11009 ft | 313 kts | 139° |
| 2026-05-06 02:09 | 40.54997 | -4.39661 | 11008 ft | 315 kts | 140° |
| 2026-05-06 02:09 | 40.53377 | -4.37696 | 11012 ft | 316 kts | 139° |
| 2026-05-06 02:09 | 40.51767 | -4.35747 | 10990 ft | 315 kts | 139° |
| 2026-05-06 02:09 | 40.50156 | -4.33798 | 11008 ft | 314 kts | 139° |
| 2026-05-06 02:10 | 40.48549 | -4.31851 | 11018 ft | 316 kts | 140° |
| 2026-05-06 02:10 | 40.46931 | -4.29894 | 11007 ft | 317 kts | 140° |
| 2026-05-06 02:10 | 40.45326 | -4.27952 | 11004 ft | 317 kts | 139° |
| 2026-05-06 02:10 | 40.43706 | -4.25994 | 11002 ft | 316 kts | 139° |
| 2026-05-06 02:11 | 40.42090 | -4.24042 | 11003 ft | 315 kts | 139° |
| 2026-05-06 02:11 | 40.40482 | -4.22100 | 11001 ft | 314 kts | 139° |
| 2026-05-06 02:11 | 40.38876 | -4.20164 | 10999 ft | 315 kts | 139° |
| 2026-05-06 02:11 | 40.37260 | -4.18219 | 10997 ft | 314 kts | 139° |
| 2026-05-06 02:12 | 40.35685 | -4.16248 | 10992 ft | 314 kts | 134° |
| 2026-05-06 02:12 | 40.34381 | -4.13948 | 10960 ft | 315 kts | 121° |
| 2026-05-06 02:12 | 40.33428 | -4.11330 | 10513 ft | 322 kts | 113° |
| 2026-05-06 02:12 | 40.32662 | -4.08567 | 10120 ft | 319 kts | 108° |
| 2026-05-06 02:13 | 40.31983 | -4.05843 | 9863 ft | 312 kts | 109° |
| 2026-05-06 02:13 | 40.31300 | -4.03161 | 9420 ft | 309 kts | 109° |
| 2026-05-06 02:13 | 40.30621 | -4.00491 | 8975 ft | 307 kts | 109° |
| 2026-05-06 02:13 | 40.29954 | -3.97836 | 8540 ft | 305 kts | 108° |
| 2026-05-06 02:14 | 40.29300 | -3.95207 | 8121 ft | 302 kts | 108° |
| 2026-05-06 02:14 | 40.28658 | -3.92606 | 7777 ft | 298 kts | 108° |
| 2026-05-06 02:14 | 40.28032 | -3.90055 | 7543 ft | 289 kts | 108° |
| 2026-05-06 02:14 | 40.27426 | -3.87586 | 7368 ft | 280 kts | 108° |
| 2026-05-06 02:15 | 40.26841 | -3.85204 | 7169 ft | 271 kts | 108° |
| 2026-05-06 02:15 | 40.26279 | -3.82920 | 7017 ft | 261 kts | 108° |
| 2026-05-06 02:15 | 40.25735 | -3.80714 | 6973 ft | 251 kts | 108° |
| 2026-05-06 02:15 | 40.25197 | -3.78538 | 6976 ft | 252 kts | 108° |
| 2026-05-06 02:16 | 40.24658 | -3.76356 | 6995 ft | 253 kts | 108° |
| 2026-05-06 02:16 | 40.24117 | -3.74157 | 6968 ft | 254 kts | 108° |
| 2026-05-06 02:16 | 40.23555 | -3.71922 | 6491 ft | 264 kts | 108° |
| 2026-05-06 02:16 | 40.22968 | -3.69628 | 6097 ft | 264 kts | 108° |
| 2026-05-06 02:17 | 40.22393 | -3.67396 | 5996 ft | 251 kts | 108° |
| 2026-05-06 02:17 | 40.21855 | -3.65303 | 5987 ft | 235 kts | 108° |
| 2026-05-06 02:17 | 40.21353 | -3.63350 | 5976 ft | 219 kts | 108° |
| 2026-05-06 02:17 | 40.20877 | -3.61492 | 5992 ft | 214 kts | 108° |
| 2026-05-06 02:18 | 40.20404 | -3.59637 | 5995 ft | 215 kts | 108° |
| 2026-05-06 02:18 | 40.19929 | -3.57771 | 5998 ft | 216 kts | 108° |
| 2026-05-06 02:18 | 40.19461 | -3.55933 | 5996 ft | 216 kts | 108° |
| 2026-05-06 02:18 | 40.18986 | -3.54072 | 5995 ft | 216 kts | 108° |
| 2026-05-06 02:19 | 40.18510 | -3.52209 | 5993 ft | 216 kts | 108° |
| 2026-05-06 02:19 | 40.18031 | -3.50334 | 5994 ft | 216 kts | 108° |
| 2026-05-06 02:19 | 40.17565 | -3.48465 | 5990 ft | 216 kts | 105° |
| 2026-05-06 02:19 | 40.17465 | -3.46521 | 5880 ft | 218 kts | 79° |
| 2026-05-06 02:20 | 40.19073 | -3.43138 | 5068 ft | 221 kts | 44° |
| 2026-05-06 02:20 | 40.20181 | -3.41828 | 4986 ft | 207 kts | 39° |
| 2026-05-06 02:20 | 40.21275 | -3.40658 | 5001 ft | 201 kts | 38° |
| 2026-05-06 02:21 | 40.22365 | -3.39507 | 4991 ft | 200 kts | 38° |
| 2026-05-06 02:21 | 40.23412 | -3.38369 | 4985 ft | 193 kts | 39° |
| 2026-05-06 02:21 | 40.24502 | -3.37356 | 4991 ft | 192 kts | 26° |
| 2026-05-06 02:21 | 40.25744 | -3.36746 | 4992 ft | 191 kts | 16° |
| 2026-05-06 02:22 | 40.27002 | -3.36298 | 4974 ft | 181 kts | 13° |
| 2026-05-06 02:22 | 40.28181 | -3.35966 | 4990 ft | 170 kts | 9° |
| 2026-05-06 02:22 | 40.29349 | -3.35992 | 4994 ft | 168 kts | 349° |
| 2026-05-06 02:22 | 40.30429 | -3.36550 | 5001 ft | 167 kts | 331° |
| 2026-05-06 02:23 | 40.31401 | -3.37353 | 4992 ft | 163 kts | 325° |
| 2026-05-06 02:23 | 40.32296 | -3.38225 | 4993 ft | 159 kts | 322° |
| 2026-05-06 02:23 | 40.33156 | -3.39124 | 4997 ft | 159 kts | 322° |
| 2026-05-06 02:23 | 40.34016 | -3.40037 | 4999 ft | 159 kts | 322° |
| 2026-05-06 02:24 | 40.34586 | -3.40640 | 4999 ft | 159 kts | 322° |
| 2026-05-06 02:24 | 40.35449 | -3.41544 | 5001 ft | 159 kts | 322° |
| 2026-05-06 02:24 | 40.36320 | -3.42448 | 4998 ft | 159 kts | 322° |
| 2026-05-06 02:24 | 40.37198 | -3.43348 | 4913 ft | 161 kts | 323° |
| 2026-05-06 02:25 | 40.38086 | -3.44245 | 4648 ft | 162 kts | 323° |
| 2026-05-06 02:25 | 40.38974 | -3.45136 | 4324 ft | 158 kts | 324° |
| 2026-05-06 02:25 | 40.39868 | -3.46011 | 4087 ft | 163 kts | 324° |
| 2026-05-06 02:25 | 40.40773 | -3.46961 | 3925 ft | 177 kts | 322° |
| 2026-05-06 02:26 | 40.41807 | -3.47986 | 3808 ft | 187 kts | 324° |
| 2026-05-06 02:26 | 40.42784 | -3.48935 | 3606 ft | 169 kts | 324° |
| 2026-05-06 02:26 | 40.43699 | -3.49846 | 3321 ft | 161 kts | 322° |
| 2026-05-06 02:26 | 40.44537 | -3.50760 | 3022 ft | 153 kts | 322° |
| 2026-05-06 02:27 | 40.45365 | -3.51595 | 2729 ft | 149 kts | 324° |
| 2026-05-06 02:27 | 40.46221 | -3.52451 | 2342 ft | 155 kts | 321° |
| 2026-05-06 02:27 | 40.47050 | -3.53319 | 2058 ft | 148 kts | 321° |
| 2026-05-06 02:27 | 40.47820 | -3.54101 | 1954 ft | 133 kts | 323° |
| 2026-05-06 02:28 | 40.48385 | -3.54655 | 1966 ft | 80 kts | 322° |
| 2026-05-06 02:28 | 40.48767 | -3.55044 | 1982 ft | 63 kts | 323° |
| 2026-05-06 02:28 | 40.49082 | -3.55369 | 1988 ft | 47 kts | 322° |
| 2026-05-06 02:28 | 40.49309 | -3.55590 | 1995 ft | 34 kts | 321° |
| 2026-05-06 02:29 | 40.49412 | -3.55819 | 1995 ft | 24 kts | 272° |
| 2026-05-06 02:29 | 40.49414 | -3.55915 | 1996 ft | 0 kts | 270° |
| 2026-05-06 02:35 | 40.49414 | -3.55917 | 1996 ft | 1 kts | 270° |
| 2026-05-06 02:36 | 40.49414 | -3.55960 | 1995 ft | 8 kts | 270° |
| 2026-05-06 02:36 | 40.49414 | -3.56055 | 1992 ft | 10 kts | 270° |
| 2026-05-06 02:36 | 40.49412 | -3.56183 | 1985 ft | 16 kts | 277° |
| 2026-05-06 02:36 | 40.49498 | -3.56247 | 1979 ft | 17 kts | 355° |
| 2026-05-06 02:37 | 40.49554 | -3.56350 | 1975 ft | 17 kts | 274° |
| 2026-05-06 02:37 | 40.49560 | -3.56511 | 1964 ft | 12 kts | 295° |
| 2026-05-06 02:37 | 40.49640 | -3.56551 | 1958 ft | 15 kts | 360° |
| 2026-05-06 02:37 | 40.49767 | -3.56551 | 1953 ft | 21 kts | 358° |
| 2026-05-06 02:38 | 40.49929 | -3.56552 | 1947 ft | 25 kts | 1° |
| 2026-05-06 02:38 | 40.50027 | -3.56620 | 1946 ft | 13 kts | 281° |
| 2026-05-06 02:38 | 40.50024 | -3.56747 | 1948 ft | 15 kts | 268° |
| 2026-05-06 02:38 | 40.50029 | -3.56899 | 1948 ft | 18 kts | 272° |
| 2026-05-06 02:39 | 40.49967 | -3.57006 | 1946 ft | 16 kts | 182° |
| 2026-05-06 02:39 | 40.49855 | -3.57011 | 1946 ft | 15 kts | 180° |
| 2026-05-06 02:39 | 40.49742 | -3.57009 | 1946 ft | 18 kts | 180° |
| 2026-05-06 02:39 | 40.49607 | -3.57008 | 1945 ft | 21 kts | 179° |
| 2026-05-06 02:40 | 40.49452 | -3.57007 | 1945 ft | 23 kts | 179° |
| 2026-05-06 02:40 | 40.49407 | -3.57006 | 1945 ft | 0 kts | 179° |
| 2026-05-06 02:40 | 40.49398 | -3.57006 | 1945 ft | 3 kts | 179° |
| 2026-05-06 02:40 | 40.49361 | -3.57006 | 1945 ft | 6 kts | 180° |
| 2026-05-06 02:41 | 40.49305 | -3.56998 | 1945 ft | 9 kts | 156° |
| 2026-05-06 02:41 | 40.49295 | -3.56973 | 1946 ft | 1 kts | 106° |
| 2026-05-06 02:41 | 40.49294 | -3.56969 | 1946 ft | 0 kts | 108° |
| 2026-05-06 02:41 | 40.49292 | -3.56963 | 1947 ft | 3 kts | 108° |
| 2026-05-06 02:42 | 40.49287 | -3.56916 | 1949 ft | 8 kts | 92° |
| 2026-05-06 02:42 | 40.49286 | -3.56900 | 1949 ft | 2 kts | 91° |
| 2026-05-06 02:42 | 40.49286 | -3.56866 | 1951 ft | 0 kts | 90° |